Terminal Aerodrome Forecast
Issued by NWS

Home | Current Version | Previous Version | Text Only | Print | Product List | Glossary On
Versions: 1 2 3 4 5 6 7 8 9 10 11 12 13 14
000
FTUS43 KGRB 180500
TAFRHI
TAF
KRHI 180520Z 1806/1906 31004KT P6SM OVC025
     FM180900 32004KT P6SM SCT250
     FM181100 31003KT 3SM BR SCT250
      TEMPO 1811/1813 3/4SM BR SCT003
     FM181500 35006KT P6SM SCT030 BKN110
     FM182000 03007KT P6SM SCT050 BKN100
     FM190100 11005KT P6SM SCT120=

USA.gov is the U.S. government's official web portal to all federal, state and local government web resources and services.